Fayette, Ohio
Current Conditions -  °F | °C
As of 12:55 PM on Friday 24 Oct 2014 (Local Time) from KUSE Reporting Station
Overcast Overcast  
Wind Chill: 57°   Ceiling: 3600
Heat Index: 57°   Visibility: 7mi
Dew Point: 45°   Wind: 9mph
Humidity: 63%   Direction: 270°W
Pressure: 30.07"   Gusts: NA
Location:  41.67°N, 84.33°W
Report Text: KUSE 241655Z AUTO 27008KT 7SM OVC036 14/07 A3007 RMK AO2
Loading
Personal Weather Stations






























Interactive Weather Map
Tropical Storm Tracking
New forecast layout! Learn more

10-Day Weather Forecast

Advertisements
Track Severe Weather on mobile